Time;durP1;ratioP1;P1;durP2;ratioP2;P2;SDS_P1;SDS_P2;PMS_P1;PMS_P2;Temp;Humidity;BMP_temperature;BMP_pressure;BME280_temperature;BME280_humidity;BME280_pressure;Samples;Min_cycle;Max_cycle;Signal;HPM_P1;HPM_P2
2021/11/26 00:00:43;;;;;;;;;8.00;6.00;;;;;12.65;100.00;100668.19;5060418;28;45430;-76
2021/11/26 00:03:08;;;;;;;;;10.00;6.00;;;;;12.60;100.00;100662.38;5060070;28;45481;-75
2021/11/26 00:05:34;;;;;;;;;11.75;7.00;;;;;12.61;100.00;100661.44;5060532;28;46101;-76
2021/11/26 00:07:59;;;;;;;;;9.00;7.00;;;;;12.58;100.00;100659.00;5069495;28;45284;-75
2021/11/26 00:10:24;;;;;;;;;11.50;7.00;;;;;12.53;100.00;100655.88;5080076;27;45464;-75
2021/11/26 00:12:57;;;;;;;;;8.50;6.75;;;;;12.53;100.00;100650.59;5062503;28;45309;-76
2021/11/26 00:18:03;;;;;;;;;10.50;7.00;;;;;12.43;100.00;100643.47;5060105;28;45597;-75
2021/11/26 00:20:29;;;;;;;;;8.00;6.25;;;;;12.40;100.00;100639.22;5060367;28;45511;-76
2021/11/26 00:22:54;;;;;;;;;5.25;5.25;;;;;12.45;100.00;100644.19;5062330;28;45426;-76
2021/11/26 00:25:20;;;;;;;;;13.50;6.00;;;;;12.40;100.00;100643.69;5050061;28;47725;-75
2021/11/26 00:27:45;;;;;;;;;6.00;6.00;;;;;12.44;100.00;100648.63;5061079;28;45457;-75
2021/11/26 00:30:11;;;;;;;;;10.00;7.50;;;;;12.42;100.00;100644.41;5045144;28;45546;-75
2021/11/26 00:32:36;;;;;;;;;7.00;7.00;;;;;12.40;100.00;100649.81;5049151;28;45170;-76
2021/11/26 00:35:03;;;;;;;;;9.50;7.00;;;;;12.39;100.00;100653.44;5056157;28;45294;-76
2021/11/26 00:37:28;;;;;;;;;11.00;6.50;;;;;12.27;100.00;100642.00;5055551;28;45444;-76
2021/11/26 00:39:54;;;;;;;;;13.75;8.00;;;;;12.38;100.00;100651.78;5080106;28;45305;-76
2021/11/26 00:42:19;;;;;;;;;7.25;7.25;;;;;12.26;100.00;100637.66;5075118;28;45377;-76
2021/11/26 00:44:45;;;;;;;;;9.75;7.00;;;;;12.26;100.00;100635.00;5067056;28;47256;-76
2021/11/26 00:47:10;;;;;;;;;9.00;6.50;;;;;12.26;100.00;100627.06;5068667;28;45322;-76
2021/11/26 00:49:35;;;;;;;;;7.00;6.25;;;;;12.27;100.00;100620.81;5047284;28;45241;-75
2021/11/26 00:52:01;;;;;;;;;10.00;8.00;;;;;12.33;100.00;100627.44;5054658;28;45384;-75
2021/11/26 00:54:26;;;;;;;;;10.25;7.50;;;;;12.38;100.00;100630.59;5039964;28;46274;-75
2021/11/26 00:56:51;;;;;;;;;9.25;6.25;;;;;12.34;100.00;100629.13;5055741;28;45469;-75
2021/11/26 00:59:17;;;;;;;;;9.00;6.00;;;;;12.38;100.00;100620.81;5072544;27;45337;-76
2021/11/26 01:01:42;;;;;;;;;5.75;5.75;;;;;12.39;100.00;100616.34;5059469;28;45298;-76
2021/11/26 01:04:07;;;;;;;;;11.25;6.00;;;;;12.36;100.00;100609.50;5059605;28;46425;-76
2021/11/26 01:06:33;;;;;;;;;6.25;5.50;;;;;12.41;100.00;100622.38;5058282;28;45284;-76
2021/11/26 01:08:58;;;;;;;;;8.50;7.25;;;;;12.40;100.00;100611.91;5057895;28;45295;-76
2021/11/26 01:11:24;;;;;;;;;7.00;6.75;;;;;12.38;100.00;100618.16;5067321;28;45519;-75
2021/11/26 01:13:49;;;;;;;;;8.75;6.00;;;;;12.28;100.00;100608.41;5079001;27;45570;-75
2021/11/26 01:16:16;;;;;;;;;7.50;6.50;;;;;12.33;100.00;100615.03;5080031;28;45203;-75
2021/11/26 01:18:41;;;;;;;;;11.25;5.25;;;;;12.29;100.00;100618.06;5071551;28;45501;-75
2021/11/26 01:21:07;;;;;;;;;8.25;5.75;;;;;12.26;100.00;100613.81;5059805;28;45282;-76
2021/11/26 01:23:35;;;;;;;;;10.00;5.00;;;;;12.31;100.00;100614.31;5061048;28;45513;-75
2021/11/26 01:26:01;;;;;;;;;10.50;6.00;;;;;12.32;100.00;100608.06;5077716;28;45473;-75
2021/11/26 01:28:26;;;;;;;;;5.50;5.50;;;;;12.33;100.00;100598.31;5078223;28;45389;-75
2021/11/26 01:30:52;;;;;;;;;8.00;6.75;;;;;12.32;100.00;100604.56;5064025;28;45368;-75
2021/11/26 01:33:19;;;;;;;;;7.75;7.00;;;;;12.32;100.00;100608.06;5065399;28;46482;-76
2021/11/26 01:35:49;;;;;;;;;9.50;6.75;;;;;12.32;100.00;100596.63;5084810;28;45310;-76
2021/11/26 01:38:15;;;;;;;;;10.00;7.25;;;;;12.26;100.00;100591.78;5079639;28;45505;-76
2021/11/26 01:40:41;;;;;;;;;10.00;6.00;;;;;12.33;100.00;100593.00;5085166;27;45288;-75
2021/11/26 01:43:10;;;;;;;;;9.00;6.00;;;;;12.30;100.00;100580.00;5082224;28;45516;-76
2021/11/26 01:45:41;;;;;;;;;14.00;6.75;;;;;12.41;100.00;100582.66;5078335;28;45571;-76
2021/11/26 01:48:06;;;;;;;;;8.00;7.00;;;;;12.28;100.00;100574.84;5064617;28;45439;-75
2021/11/26 01:50:32;;;;;;;;;10.25;7.00;;;;;12.27;100.00;100572.31;5074877;28;45314;-75
2021/11/26 01:52:57;;;;;;;;;6.50;5.75;;;;;12.27;100.00;100574.97;5079458;27;45290;-75
2021/11/26 01:55:23;;;;;;;;;13.25;5.00;;;;;12.26;100.00;100571.47;5068748;28;45418;-76
2021/11/26 01:57:48;;;;;;;;;11.00;8.00;;;;;12.22;100.00;100569.16;5065822;28;45326;-75
2021/11/26 02:00:19;;;;;;;;;8.25;6.75;;;;;12.23;100.00;100568.19;5064214;28;45387;-76
2021/11/26 02:02:44;;;;;;;;;9.00;7.00;;;;;12.14;100.00;100561.81;5052031;28;45484;-75
2021/11/26 02:05:10;;;;;;;;;9.50;6.25;;;;;12.17;100.00;100558.94;5062140;28;45381;-76
2021/11/26 02:07:35;;;;;;;;;10.25;6.50;;;;;12.18;100.00;100557.13;5063218;28;45520;-75
2021/11/26 02:10:02;;;;;;;;;6.25;6.00;;;;;12.17;100.00;100545.69;5075064;27;45609;-75
2021/11/26 02:12:27;;;;;;;;;12.50;6.75;;;;;12.19;100.00;100557.03;5061770;28;45391;-75
2021/11/26 02:14:53;;;;;;;;;10.00;3.00;;;;;12.16;100.00;100543.16;5078967;28;45350;-76
2021/11/26 02:17:18;;;;;;;;;8.25;6.25;;;;;12.13;100.00;100541.59;5082606;28;45888;-75
2021/11/26 02:19:43;;;;;;;;;9.75;5.25;;;;;12.14;100.00;100534.50;5070630;27;45444;-75
2021/11/26 02:22:09;;;;;;;;;8.50;7.00;;;;;12.07;100.00;100533.28;5063193;28;45463;-75
2021/11/26 02:24:34;;;;;;;;;8.00;5.75;;;;;12.08;100.00;100527.03;5062762;28;45382;-75
2021/11/26 02:27:00;;;;;;;;;11.25;5.50;;;;;12.11;100.00;100527.63;5063104;28;45389;-75
2021/11/26 02:29:25;;;;;;;;;11.00;6.50;;;;;12.04;100.00;100523.78;5059266;28;45736;-75
2021/11/26 02:31:51;;;;;;;;;11.75;7.00;;;;;12.02;100.00;100516.94;5061944;28;46297;-75
2021/11/26 02:34:17;;;;;;;;;10.50;6.00;;;;;11.94;100.00;100515.69;5077513;28;45356;-75
2021/11/26 02:36:43;;;;;;;;;6.75;6.75;;;;;12.02;100.00;100515.09;5066989;28;45537;-75
2021/11/26 02:39:09;;;;;;;;;8.25;5.25;;;;;12.18;100.00;100517.44;5058921;28;45539;-75
2021/11/26 02:41:41;;;;;;;;;10.75;7.50;;;;;12.20;100.00;100515.50;5069451;28;45362;-75
2021/11/26 02:44:07;;;;;;;;;10.00;7.00;;;;;12.19;100.00;100516.47;5060283;28;45410;-75
2021/11/26 02:46:34;;;;;;;;;5.75;4.75;;;;;12.08;100.00;100500.56;5058880;28;45386;-75
2021/11/26 02:48:59;;;;;;;;;10.25;8.00;;;;;12.15;100.00;100507.91;5062849;28;45448;-76
2021/11/26 02:51:25;;;;;;;;;6.25;6.25;;;;;12.06;100.00;100495.38;5061812;28;46362;-76
2021/11/26 02:53:50;;;;;;;;;10.25;6.75;;;;;12.04;100.00;100496.47;5061608;28;45447;-75
2021/11/26 02:56:16;;;;;;;;;10.50;7.50;;;;;11.90;100.00;100501.03;5063115;28;45457;-75
2021/11/26 02:58:41;;;;;;;;;6.50;5.00;;;;;12.03;100.00;100495.63;5073839;27;45457;-75
2021/11/26 03:01:07;;;;;;;;;7.50;6.00;;;;;12.03;100.00;100470.97;5061213;28;45509;-75
2021/11/26 03:03:32;;;;;;;;;10.50;6.00;;;;;12.05;100.00;100471.69;5068183;28;45257;-75
2021/11/26 03:06:04;;;;;;;;;4.00;2.25;;;;;12.07;100.00;100472.41;5081377;28;45315;-75
2021/11/26 03:08:31;;;;;;;;;8.50;5.00;;;;;12.13;100.00;100464.81;5076350;27;45380;-75
2021/11/26 03:10:58;;;;;;;;;11.25;6.75;;;;;12.23;100.00;100471.09;5075484;28;47259;-75
2021/11/26 03:13:24;;;;;;;;;11.00;6.00;;;;;12.08;100.00;100456.41;5071312;28;46024;-75
2021/11/26 03:15:50;;;;;;;;;7.00;6.50;;;;;11.93;100.00;100455.78;5061380;28;45388;-75
2021/11/26 03:18:18;;;;;;;;;9.50;9.50;;;;;12.03;100.00;100465.66;5074034;28;45429;-75
2021/11/26 03:20:45;;;;;;;;;10.75;5.75;;;;;11.82;100.00;100460.25;5062063;28;45452;-75
2021/11/26 03:23:11;;;;;;;;;12.75;6.25;;;;;11.80;100.00;100459.53;5069117;28;45358;-75
2021/11/26 03:25:36;;;;;;;;;6.75;6.00;;;;;11.80;100.00;100459.53;5080219;28;45417;-75
2021/11/26 03:28:01;;;;;;;;;7.50;5.75;;;;;11.78;100.00;100451.69;5079810;28;45442;-75
2021/11/26 03:30:27;;;;;;;;;10.25;6.00;;;;;11.80;100.00;100452.44;5068138;28;45268;-75
2021/11/26 03:32:52;;;;;;;;;8.25;5.00;;;;;11.77;100.00;100447.38;5080575;27;45477;-75
2021/11/26 03:35:19;;;;;;;;;15.25;7.25;;;;;11.80;100.00;100436.56;5079939;28;45385;-75
2021/11/26 03:37:46;;;;;;;;;10.00;6.00;;;;;11.76;100.00;100426.31;5058606;27;45257;-75
2021/11/26 03:40:14;;;;;;;;;10.50;7.00;;;;;11.76;100.00;100428.97;5077385;28;46573;-75
2021/11/26 03:42:39;;;;;;;;;8.75;7.00;;;;;11.71;100.00;100424.00;5074339;27;45631;-75
2021/11/26 03:45:07;;;;;;;;;10.00;6.25;;;;;11.69;100.00;100418.00;5055711;28;45469;-75
2021/11/26 03:47:32;;;;;;;;;10.00;5.00;;;;;11.55;100.00;100408.50;5058427;28;45346;-75
2021/11/26 03:49:58;;;;;;;;;15.75;6.00;;;;;11.56;100.00;100404.84;5076712;28;47313;-75
2021/11/26 03:52:23;;;;;;;;;10.00;6.25;;;;;11.54;100.00;100400.66;5061783;28;45306;-75
2021/11/26 03:54:49;;;;;;;;;6.25;6.00;;;;;11.54;100.00;100396.22;5061907;28;45237;-75
2021/11/26 03:57:14;;;;;;;;;14.25;6.00;;;;;11.54;100.00;100403.31;5067900;28;45367;-75
2021/11/26 03:59:40;;;;;;;;;8.25;5.00;;;;;11.53;100.00;100401.63;5081163;28;46102;-75
2021/11/26 04:02:05;;;;;;;;;10.50;6.00;;;;;11.51;100.00;100399.09;5066761;28;45149;-75
2021/11/26 04:04:31;;;;;;;;;8.25;6.00;;;;;11.57;100.00;100389.84;5060984;28;45299;-75
2021/11/26 04:06:57;;;;;;;;;10.75;6.50;;;;;11.60;100.00;100392.25;5060478;28;45491;-75
2021/11/26 04:09:23;;;;;;;;;11.00;7.00;;;;;11.60;100.00;100392.25;5075865;28;46195;-75
2021/11/26 04:11:49;;;;;;;;;11.25;6.00;;;;;11.54;100.00;100388.28;5061051;28;45433;-75
2021/11/26 04:14:14;;;;;;;;;8.25;6.75;;;;;11.44;100.00;100376.72;5073009;28;45366;-75
2021/11/26 04:16:39;;;;;;;;;10.75;6.75;;;;;11.46;100.00;100376.63;5079285;28;45449;-75
2021/11/26 04:19:05;;;;;;;;;11.50;6.00;;;;;11.45;100.00;100375.78;5076273;28;48329;-75
2021/11/26 04:21:32;;;;;;;;;9.75;7.00;;;;;11.52;100.00;100376.13;5080246;28;45351;-75
2021/11/26 04:23:58;;;;;;;;;10.25;5.00;;;;;11.47;100.00;100367.72;5074342;28;45332;-75
2021/11/26 04:26:24;;;;;;;;;6.25;5.25;;;;;11.49;100.00;100361.34;5075387;28;45206;-75
2021/11/26 04:28:49;;;;;;;;;8.00;7.00;;;;;11.51;100.00;100363.88;5059971;28;45295;-75
2021/11/26 04:31:15;;;;;;;;;9.25;6.00;;;;;11.48;100.00;100357.00;5059911;28;45338;-75
2021/11/26 04:33:40;;;;;;;;;11.75;9.00;;;;;11.51;100.00;100356.78;5059242;28;45664;-75
2021/11/26 04:36:05;;;;;;;;;10.75;6.50;;;;;11.55;100.00;100354.75;5058739;28;46099;-75
2021/11/26 04:38:31;;;;;;;;;9.50;7.00;;;;;11.54;100.00;100355.72;5065446;28;46127;-75
2021/11/26 04:40:57;;;;;;;;;9.75;6.75;;;;;11.55;100.00;100344.19;5060726;28;45287;-75
2021/11/26 04:43:23;;;;;;;;;6.75;6.00;;;;;11.55;100.00;100338.88;5076271;28;45474;-75
2021/11/26 04:45:51;;;;;;;;;9.00;6.00;;;;;11.63;100.00;100344.41;5073638;27;45473;-75
2021/11/26 04:48:18;;;;;;;;;8.75;7.75;;;;;11.66;100.00;100338.88;5068424;28;46118;-75
2021/11/26 04:50:43;;;;;;;;;10.00;8.25;;;;;11.64;100.00;100340.81;5059630;28;45874;-75
2021/11/26 04:53:09;;;;;;;;;12.25;8.00;;;;;11.64;100.00;100340.81;5060073;28;45232;-75
2021/11/26 04:55:34;;;;;;;;;10.00;8.00;;;;;11.68;100.00;100341.41;5062960;28;45529;-75
2021/11/26 04:58:00;;;;;;;;;9.25;6.25;;;;;11.63;100.00;100328.56;5079794;27;46019;-75
2021/11/26 05:00:25;;;;;;;;;8.75;6.00;;;;;11.64;100.00;100327.59;5079260;27;45215;-75
2021/11/26 05:02:51;;;;;;;;;12.75;8.00;;;;;11.70;100.00;100329.75;5067743;27;45236;-75
2021/11/26 05:05:16;;;;;;;;;16.25;8.25;;;;;11.66;100.00;100323.00;5058733;28;45461;-75
2021/11/26 05:07:42;;;;;;;;;12.75;8.50;;;;;11.60;100.00;100326.97;5064838;28;45590;-75
2021/11/26 05:10:08;;;;;;;;;13.50;7.00;;;;;11.44;100.00;100315.09;5082717;28;45485;-75
2021/11/26 05:12:37;;;;;;;;;7.00;7.00;;;;;11.44;100.00;100300.06;5074254;28;45414;-75
2021/11/26 05:15:04;;;;;;;;;10.25;7.50;;;;;11.52;100.00;100310.03;5078412;28;45571;-75
2021/11/26 05:17:30;;;;;;;;;12.25;9.00;;;;;11.53;100.00;100306.44;5080850;28;46519;-75
2021/11/26 05:19:55;;;;;;;;;12.25;9.00;;;;;11.49;100.00;100300.53;5082632;28;45239;-74
2021/11/26 05:22:21;;;;;;;;;13.50;8.25;;;;;11.47;100.00;100305.09;5083450;28;45299;-75
2021/11/26 05:24:46;;;;;;;;;16.75;10.00;;;;;11.42;100.00;100301.97;5072395;27;45424;-75
2021/11/26 05:27:12;;;;;;;;;12.50;7.00;;;;;11.41;100.00;100289.72;5062679;28;45385;-74
2021/11/26 05:29:37;;;;;;;;;10.00;9.25;;;;;11.36;100.00;100283.13;5062897;28;45534;-75
2021/11/26 05:32:03;;;;;;;;;10.50;7.00;;;;;11.35;100.00;100273.50;5063029;28;45365;-75
2021/11/26 05:34:28;;;;;;;;;11.50;7.00;;;;;11.39;100.00;100267.84;5066838;28;45381;-75
2021/11/26 05:36:53;;;;;;;;;7.50;5.00;;;;;11.37;100.00;100266.28;5076526;27;46236;-75
2021/11/26 05:39:19;;;;;;;;;13.00;9.50;;;;;11.34;100.00;100259.44;5066826;28;45376;-75
2021/11/26 05:41:44;;;;;;;;;11.00;11.00;;;;;11.31;100.00;100258.81;5079092;28;45432;-75
2021/11/26 05:44:10;;;;;;;;;17.75;10.50;;;;;11.27;100.00;100244.19;5080736;28;45541;-75
2021/11/26 05:46:35;;;;;;;;;8.75;7.50;;;;;11.29;100.00;100245.72;5070235;28;45509;-75
2021/11/26 05:49:00;;;;;;;;;13.75;10.25;;;;;11.33;100.00;100238.41;5079003;28;45334;-75
2021/11/26 05:51:26;;;;;;;;;8.75;8.75;;;;;11.28;100.00;100241.44;5082029;27;45373;-74
2021/11/26 05:53:51;;;;;;;;;12.00;10.75;;;;;11.32;100.00;100234.06;5075687;28;45560;-75
2021/11/26 05:56:17;;;;;;;;;12.25;9.50;;;;;11.36;100.00;100238.19;5064648;28;45482;-75
2021/11/26 05:58:42;;;;;;;;;10.25;9.75;;;;;11.35;100.00;100228.56;5076784;28;45581;-75
2021/11/26 06:01:08;;;;;;;;;12.50;10.25;;;;;11.44;100.00;100231.31;5067069;28;45272;-75
2021/11/26 06:03:33;;;;;;;;;14.00;11.50;;;;;11.46;100.00;100223.28;5063429;28;45202;-77
2021/11/26 06:05:58;;;;;;;;;11.50;11.25;;;;;11.48;100.00;100216.88;5074641;28;45955;-76
2021/11/26 06:08:24;;;;;;;;;17.00;11.50;;;;;11.47;100.00;100209.91;5074071;28;45401;-76
2021/11/26 06:10:49;;;;;;;;;11.50;8.00;;;;;11.38;100.00;100209.81;5078640;27;45308;-77
2021/11/26 06:13:15;;;;;;;;;14.25;10.00;;;;;11.38;100.00;100210.63;5061710;28;45489;-76
2021/11/26 06:15:40;;;;;;;;;14.00;10.75;;;;;11.35;100.00;100205.63;5067735;28;45400;-76
2021/11/26 06:18:05;;;;;;;;;12.50;11.00;;;;;11.29;100.00;100197.34;5059461;28;45311;-76
2021/11/26 06:20:31;;;;;;;;;10.25;7.75;;;;;11.27;100.00;100201.91;5061148;28;45314;-77
2021/11/26 06:22:56;;;;;;;;;11.00;9.00;;;;;11.30;100.00;100199.00;5061088;28;45378;-76
2021/11/26 06:25:23;;;;;;;;;19.25;9.50;;;;;11.26;100.00;100198.41;5061614;28;46247;-76
2021/11/26 06:27:49;;;;;;;;;14.75;10.50;;;;;11.25;100.00;100191.44;5064541;28;45811;-76
2021/11/26 06:30:17;;;;;;;;;15.00;10.00;;;;;11.28;100.00;100188.56;5064110;28;46511;-76
2021/11/26 06:32:43;;;;;;;;;11.50;7.00;;;;;11.23;100.00;100182.78;5073998;28;45345;-76
2021/11/26 06:35:11;;;;;;;;;12.75;9.50;;;;;11.28;100.00;100183.28;5062760;28;45318;-76
2021/11/26 06:37:37;;;;;;;;;13.50;9.75;;;;;11.21;100.00;100167.03;5061864;28;45848;-77
2021/11/26 06:40:04;;;;;;;;;12.75;9.00;;;;;11.23;100.00;100164.28;5051747;28;45632;-77
2021/11/26 06:42:29;;;;;;;;;10.25;7.25;;;;;11.16;100.00;100163.94;5068276;28;45528;-76
2021/11/26 06:44:55;;;;;;;;;11.50;9.50;;;;;11.21;100.00;100160.91;5055800;27;46064;-76
2021/11/26 06:47:21;;;;;;;;;11.50;10.75;;;;;11.26;100.00;100153.47;5058536;28;45319;-76
2021/11/26 06:49:47;;;;;;;;;10.25;8.00;;;;;11.27;100.00;100155.16;5079545;28;45298;-76
2021/11/26 06:52:13;;;;;;;;;12.75;7.50;;;;;11.24;100.00;100145.66;5058910;28;45403;-76
2021/11/26 06:54:38;;;;;;;;;12.25;7.25;;;;;11.23;100.00;100148.44;5057410;28;47326;-76
2021/11/26 06:57:04;;;;;;;;;6.75;6.75;;;;;11.28;100.00;100145.44;5066295;27;45389;-76
2021/11/26 06:59:29;;;;;;;;;10.00;6.00;;;;;11.30;100.00;100133.75;5074913;28;47004;-76
2021/11/26 07:01:55;;;;;;;;;17.50;7.00;;;;;11.32;100.00;100131.84;5080001;28;45439;-76
2021/11/26 07:04:22;;;;;;;;;6.75;1.00;;;;;11.36;100.00;100125.34;5064710;28;45286;-76
2021/11/26 07:06:48;;;;;;;;;9.50;6.00;;;;;11.34;100.00;100119.34;5061408;28;45537;-77
2021/11/26 07:09:13;;;;;;;;;14.50;8.50;;;;;11.33;100.00;100112.38;5070499;28;45499;-77
2021/11/26 07:11:38;;;;;;;;;13.25;7.50;;;;;11.31;100.00;100110.81;5062076;28;45366;-77
2021/11/26 07:14:04;;;;;;;;;14.00;7.25;;;;;11.21;100.00;100103.63;5064966;28;45569;-77
2021/11/26 07:16:29;;;;;;;;;14.75;9.75;;;;;11.22;100.00;100104.47;5069579;28;45466;-77
2021/11/26 07:18:55;;;;;;;;;9.00;9.00;;;;;11.32;100.00;100099.28;5068642;28;45306;-76
2021/11/26 07:21:20;;;;;;;;;12.75;8.50;;;;;11.37;100.00;100095.31;5060583;28;45639;-76
2021/11/26 07:23:46;;;;;;;;;11.50;8.00;;;;;11.38;100.00;100094.31;5060806;28;45384;-76
2021/11/26 07:26:11;;;;;;;;;10.50;8.00;;;;;11.44;100.00;100095.66;5058318;28;45409;-76
2021/11/26 07:28:37;;;;;;;;;12.25;9.75;;;;;11.47;100.00;100085.63;5068014;28;45460;-77
2021/11/26 07:31:02;;;;;;;;;12.50;9.25;;;;;11.42;100.00;100071.13;5057256;28;45416;-77
2021/11/26 07:33:27;;;;;;;;;13.50;10.25;;;;;11.45;100.00;100076.19;5058544;28;46092;-76
2021/11/26 07:35:53;;;;;;;;;13.50;7.25;;;;;11.42;100.00;100066.69;5060509;28;45377;-76
2021/11/26 07:38:18;;;;;;;;;8.75;7.50;;;;;11.33;100.00;100070.06;5062734;28;45511;-77
2021/11/26 07:40:44;;;;;;;;;11.00;9.00;;;;;11.36;100.00;100061.06;5079299;28;45337;-77
2021/11/26 07:43:09;;;;;;;;;15.25;10.75;;;;;11.39;100.00;100053.72;5080672;28;46380;-77
2021/11/26 07:45:35;;;;;;;;;12.50;9.25;;;;;11.45;100.00;100053.22;5058868;27;45238;-76
2021/11/26 07:48:00;;;;;;;;;12.75;9.00;;;;;11.51;100.00;100055.34;5048045;28;45696;-77
2021/11/26 07:50:26;;;;;;;;;11.75;9.50;;;;;11.48;100.00;100050.31;5058587;28;45595;-78
2021/11/26 07:52:52;;;;;;;;;15.00;10.00;;;;;11.42;100.00;100053.47;5050777;28;45481;-77
2021/11/26 07:55:17;;;;;;;;;12.00;12.00;;;;;11.51;100.00;100052.72;5059306;28;45271;-77
2021/11/26 07:57:44;;;;;;;;;11.75;8.00;;;;;11.55;100.00;100054.16;5062048;28;45416;-77
2021/11/26 08:00:11;;;;;;;;;15.00;10.25;;;;;11.65;100.00;100056.03;5077233;28;45372;-77
2021/11/26 08:02:36;;;;;;;;;10.25;10.00;;;;;11.59;100.00;100057.34;5066996;28;47619;-77
2021/11/26 08:05:02;;;;;;;;;11.00;9.00;;;;;11.53;100.00;100042.84;5060637;28;45371;-77
2021/11/26 08:07:28;;;;;;;;;18.25;8.00;;;;;11.55;100.00;100037.44;5059829;28;45517;-77
2021/11/26 08:09:53;;;;;;;;;12.25;8.50;;;;;11.64;100.00;100023.47;5060678;28;45414;-77
2021/11/26 08:12:19;;;;;;;;;12.25;7.00;;;;;11.73;100.00;100011.28;5048073;28;47250;-77
2021/11/26 08:14:47;;;;;;;;;10.75;9.50;;;;;11.84;100.00;100006.75;5056156;28;45512;-77
2021/11/26 08:17:12;;;;;;;;;12.00;10.50;;;;;11.90;100.00;100000.13;5054831;28;45319;-77
2021/11/26 08:19:37;;;;;;;;;9.75;6.25;;;;;11.89;100.00;99993.16;5049566;28;45442;-77
2021/11/26 08:22:03;;;;;;;;;12.00;6.00;;;;;11.97;100.00;99996.84;5050681;28;45954;-77
2021/11/26 08:24:28;;;;;;;;;9.75;7.00;;;;;12.04;100.00;99991.00;5064815;28;45420;-77
2021/11/26 08:26:55;;;;;;;;;16.75;8.25;;;;;12.09;100.00;99988.81;5044829;28;45442;-77
2021/11/26 08:29:20;;;;;;;;;7.25;7.25;;;;;12.01;100.00;99993.94;5061389;28;45299;-77
2021/11/26 08:31:46;;;;;;;;;11.25;6.00;;;;;11.92;100.00;99982.34;5080325;28;45445;-77
2021/11/26 08:34:12;;;;;;;;;7.25;3.00;;;;;11.85;100.00;99992.56;5060215;28;45529;-77
2021/11/26 08:36:38;;;;;;;;;9.25;6.00;;;;;11.86;100.00;99994.25;5057888;28;45407;-76
2021/11/26 08:39:05;;;;;;;;;12.25;3.50;;;;;11.76;100.00;99988.06;5068148;28;45358;-76
2021/11/26 08:41:31;;;;;;;;;13.00;6.25;;;;;11.86;100.00;99977.53;5068169;28;46662;-76
2021/11/26 08:43:56;;;;;;;;;9.50;6.50;;;;;12.01;100.00;99980.72;5060457;28;44776;-76
2021/11/26 08:46:22;;;;;;;;;7.75;5.25;;;;;11.90;100.00;99969.22;5056441;28;45508;-76
2021/11/26 08:48:47;;;;;;;;;7.50;6.00;;;;;11.95;100.00;99966.19;5053577;28;45469;-76
2021/11/26 08:51:13;;;;;;;;;14.00;7.50;;;;;11.97;100.00;99964.25;5044402;28;45312;-76
2021/11/26 08:53:44;;;;;;;;;12.25;6.75;;;;;12.03;100.00;99968.16;5053422;28;45491;-76
2021/11/26 08:56:10;;;;;;;;;9.50;6.50;;;;;11.95;100.00;99961.72;5049103;28;45445;-76
2021/11/26 08:58:36;;;;;;;;;8.00;6.25;;;;;11.99;100.00;99968.44;5050247;28;45363;-76
2021/11/26 09:01:03;;;;;;;;;7.50;6.50;;;;;12.05;100.00;99968.88;5057756;28;45306;-76
2021/11/26 09:03:28;;;;;;;;;7.50;7.25;;;;;12.01;100.00;99964.84;5059632;28;45732;-76
2021/11/26 09:05:54;;;;;;;;;10.00;7.25;;;;;12.02;100.00;99975.25;5059545;28;45350;-76
2021/11/26 09:08:19;;;;;;;;;7.50;5.75;;;;;11.85;100.00;99968.75;5059750;28;45448;-76
2021/11/26 09:10:47;;;;;;;;;2.00;2.00;;;;;12.01;100.00;99952.44;5052614;28;45473;-76
2021/11/26 09:13:15;;;;;;;;;8.00;6.25;;;;;12.08;100.00;99952.75;5055852;28;45438;-76
2021/11/26 09:15:41;;;;;;;;;10.50;7.25;;;;;12.25;100.00;99936.22;5053101;28;45271;-76
2021/11/26 09:18:09;;;;;;;;;8.00;7.00;;;;;12.41;100.00;99938.38;5054130;28;45220;-76
2021/11/26 09:20:36;;;;;;;;;7.00;6.00;;;;;12.49;100.00;99918.19;5075201;27;45383;-76
2021/11/26 09:23:06;;;;;;;;;17.25;13.25;;;;;12.57;100.00;99910.38;5040555;28;45581;-76
2021/11/26 09:25:32;;;;;;;;;12.00;6.75;;;;;12.65;100.00;99913.22;5057074;28;45474;-76
2021/11/26 09:27:58;;;;;;;;;5.00;3.00;;;;;12.67;100.00;99908.59;5054913;28;45463;-77
2021/11/26 09:30:26;;;;;;;;;6.00;6.00;;;;;12.81;100.00;99903.88;5052210;28;46467;-77
2021/11/26 09:32:52;;;;;;;;;8.00;4.25;;;;;12.90;100.00;99889.81;5056721;28;45351;-77
2021/11/26 09:35:17;;;;;;;;;4.25;3.00;;;;;13.12;100.00;99886.84;5075760;28;45454;-77
2021/11/26 09:37:43;;;;;;;;;7.00;5.50;;;;;13.11;99.91;99887.81;5044867;28;45456;-77
2021/11/26 09:40:10;;;;;;;;;10.25;4.25;;;;;13.09;100.00;99872.09;5055994;28;46004;-77
2021/11/26 09:42:42;;;;;;;;;8.00;5.50;;;;;12.95;99.24;99872.50;5074328;28;45578;-77
2021/11/26 09:45:09;;;;;;;;;6.25;5.00;;;;;12.95;98.02;99861.91;5058768;28;45463;-77
2021/11/26 09:47:34;;;;;;;;;6.00;4.75;;;;;12.92;100.00;99856.06;5063152;28;46114;-77
2021/11/26 09:50:00;;;;;;;;;8.00;6.00;;;;;13.24;99.47;99853.13;5083068;28;45397;-77
2021/11/26 09:52:26;;;;;;;;;9.00;6.00;;;;;13.32;97.89;99843.47;5074082;28;45255;-78
2021/11/26 09:54:51;;;;;;;;;2.75;1.50;;;;;13.39;96.75;99838.41;5080086;28;45356;-77
2021/11/26 09:57:17;;;;;;;;;5.50;5.50;;;;;13.53;95.70;99830.03;5071930;28;45432;-77
2021/11/26 09:59:45;;;;;;;;;8.25;3.50;;;;;13.53;92.46;99819.41;5056303;27;45299;-77
2021/11/26 10:02:18;;;;;;;;;9.00;3.75;;;;;13.58;93.88;99821.63;5079081;28;45417;-77
2021/11/26 10:04:44;;;;;;;;;7.75;3.25;;;;;13.54;93.46;99818.44;5076828;28;45367;-77
2021/11/26 10:07:10;;;;;;;;;3.25;3.25;;;;;13.40;90.87;99814.41;5074147;28;45345;-77
2021/11/26 10:09:38;;;;;;;;;3.00;3.00;;;;;13.29;91.48;99808.47;5073562;28;45430;-77
2021/11/26 10:12:08;;;;;;;;;3.25;3.00;;;;;13.24;93.45;99813.34;5082127;28;45569;-75
2021/11/26 10:14:40;;;;;;;;;6.50;3.25;;;;;13.08;91.50;99798.84;5063266;28;45446;-77
2021/11/26 10:17:16;;;;;;;;;12.25;5.75;;;;;12.74;93.45;99793.19;5065827;28;46004;-77
2021/11/26 10:19:53;;;;;;;;;7.00;4.25;;;;;12.79;93.76;99794.56;5081796;27;45390;-77
2021/11/26 10:22:25;;;;;;;;;5.00;5.00;;;;;12.66;94.29;99771.00;5082474;27;46708;-75
2021/11/26 10:25:06;;;;;;;;;9.50;6.00;;;;;12.68;95.12;99761.09;5080478;28;45383;-77
2021/11/26 10:27:41;;;;;;;;;7.75;6.50;;;;;12.57;95.38;99756.78;5081766;27;45439;-77
2021/11/26 10:30:16;;;;;;;;;6.25;3.00;;;;;12.52;95.00;99751.09;5072111;27;45918;-77
2021/11/26 10:33:00;;;;;;;;;2.50;1.25;;;;;12.32;95.00;99741.47;5081250;27;45666;-77
2021/11/26 10:35:54;;;;;;;;;7.25;3.00;;;;;12.46;95.92;99735.75;5062120;28;45417;-77
2021/11/26 10:38:22;;;;;;;;;6.00;2.00;;;;;12.35;93.77;99723.50;5063407;28;45409;-77
2021/11/26 10:40:53;;;;;;;;;4.75;4.00;;;;;12.34;93.44;99713.88;5064877;28;46451;-77
2021/11/26 10:57:56;;;;;;;;;2.75;2.75;;;;;12.57;94.90;99690.56;5065320;28;45491;-77
2021/11/26 10:59:43;;;;;;;;;5.00;2.00;;;;;12.67;94.06;99683.44;5060144;28;46447;-77
2021/11/26 11:02:09;;;;;;;;;6.50;3.00;;;;;12.85;94.25;99672.94;5066065;28;45474;-77
2021/11/26 11:04:37;;;;;;;;;3.00;2.00;;;;;12.86;94.24;99676.44;5081601;28;45301;-77
2021/11/26 11:07:09;;;;;;;;;3.50;2.25;;;;;12.73;94.19;99660.88;5049108;28;45176;-77
2021/11/26 11:09:38;;;;;;;;;5.50;3.75;;;;;12.69;94.94;99652.38;5060686;28;45156;-78
2021/11/26 11:12:04;;;;;;;;;7.25;3.00;;;;;12.59;95.75;99643.59;5061523;28;45527;-75
2021/11/26 11:14:29;;;;;;;;;4.25;4.25;;;;;12.65;96.26;99643.06;5052216;28;45339;-77
2021/11/26 11:16:56;;;;;;;;;5.25;2.75;;;;;12.28;96.71;99645.63;5050538;28;45576;-77
2021/11/26 11:19:23;;;;;;;;;6.00;2.00;;;;;12.38;97.89;99612.00;5065427;28;45595;-77
2021/11/26 11:21:51;;;;;;;;;6.00;3.00;;;;;12.42;97.83;99609.91;5070432;28;48294;-77
2021/11/26 11:24:17;;;;;;;;;7.00;3.00;;;;;12.35;97.78;99587.66;5057836;28;45453;-77
2021/11/26 11:26:46;;;;;;;;;4.25;2.50;;;;;12.75;97.74;99579.41;5060665;28;45501;-77